MET'MAP v2.0
soon released !

Expected late october,
this new version will be
more efficient, smarter,
and hosted on a brand new
server x3 powerfull...
...and still free !


Not compatible ?
Try the mobile version !

LOG IN : | Subscribe | Disclaimer | Who is Orbifly ? |
ICAO code :
Legend : VFR Marginal VFR IFR Intensive IFR Very Intensive IFR
Visi :
Ceiling :
>= 8 km
>= 3000ft
5 to 8 km
1000 to 3000 ft
1500m to 5 km
500 to 1000 ft
800 to 1500m
200 to 500 ft
< 800m
< 200 ft

METAR - EDDT Berlin Tegel Int. - 27 May 2020 12:20 UTC - Data Source NOAA   


- Airport Elevation : 122 ft
- IATA code : TXL
- No reported NOTAMs.


EDDT - Berlin Tegel Int.

Latest METAR recorded : 2015/08/11 07:50 EDDT 110750Z VRB03KT CAVOK 26/15 Q1014 NOSIG
TAF TAF EDDT
Valid from the 27 at 06:00 until the 28 at 06:00 UTC


270500Z 2706/2806 VRB01KT CAVOK
BECMG 2707/2710 28006KT
BECMG 2717/2719 34004KT

Source NOAA


MET'MAP, your aeronautical weather chart ! - Copyright ORBIFLY December 2007

Programming & Development : Alexandra Zaïnal
Co-Developer : Marc-Olivier Méhu
Technical & hardware support : Manuel Goepfert
Concept & Financing : Baudouin d'Aumeries